Time,TemperatureF,DewpointF,PressureIn,WindDirection,WindDirectionDegrees,WindSpeedMPH,WindSpeedGustMPH,Humidity,HourlyPrecipIn,Conditions,Clouds,dailyrainin,SoftwareType,DateUTC
2013-02-28 00:00:00,44.1,39.6,29.79,ESE,113,0.0,1.0,84,0.00,,---,0.00,VWS V14.01,2013-02-28 05:00:00,
2013-02-28 00:15:00,43.8,39.6,29.79,WSW,248,0.0,2.0,85,0.00,,---,0.00,VWS V14.01,2013-02-28 05:15:00,
2013-02-28 00:30:00,43.5,39.6,29.78,ESE,120,0.0,1.0,86,0.00,,---,0.00,VWS V14.01,2013-02-28 05:30:00,
2013-02-28 00:45:00,43.4,39.8,29.79,North,11,0.0,1.0,87,0.00,,---,0.00,VWS V14.01,2013-02-28 05:45:00,
2013-02-28 01:00:00,43.8,39.6,29.78,SE,143,1.0,3.0,85,0.00,,---,0.00,VWS V14.01,2013-02-28 06:00:00,
2013-02-28 01:15:00,44.1,39.6,29.78,SE,138,1.0,2.0,84,0.00,,---,0.00,VWS V14.01,2013-02-28 06:15:00,
2013-02-28 01:30:00,43.8,39.6,29.78,ENE,67,0.0,2.0,85,0.00,,---,0.00,VWS V14.01,2013-02-28 06:30:00,
2013-02-28 01:45:00,43.7,39.5,29.78,SE,143,0.0,2.0,85,0.00,,---,0.00,VWS V14.01,2013-02-28 06:45:00,
2013-02-28 02:00:00,43.3,39.1,29.78,SSE,148,0.0,2.0,85,0.00,,---,0.00,VWS V14.01,2013-02-28 07:00:00,
2013-02-28 02:15:00,43.4,39.2,29.77,ESE,110,0.0,2.0,85,0.00,,---,0.00,VWS V14.01,2013-02-28 07:15:00,
2013-02-28 02:30:00,43.2,39.0,29.77,SSW,203,1.0,3.0,85,0.00,,---,0.00,VWS V14.01,2013-02-28 07:30:00,
2013-02-28 02:45:00,43.1,38.6,29.77,WNW,284,0.0,4.0,84,0.00,,---,0.00,VWS V14.01,2013-02-28 07:45:00,
2013-02-28 03:00:00,42.8,38.6,29.77,West,267,0.0,2.0,85,0.00,,---,0.00,VWS V14.01,2013-02-28 08:00:00,
2013-02-28 03:15:00,42.4,38.2,29.77,SE,132,0.0,1.0,85,0.00,,---,0.00,VWS V14.01,2013-02-28 08:15:00,
2013-02-28 03:30:00,42.2,38.3,29.78,WSW,245,0.0,2.0,86,0.00,,---,0.00,VWS V14.01,2013-02-28 08:30:00,
2013-02-28 03:45:00,41.9,37.7,29.77,WSW,246,0.0,2.0,85,0.00,,---,0.00,VWS V14.01,2013-02-28 08:45:00,
2013-02-28 04:00:00,41.5,37.3,29.77,WSW,240,0.0,1.0,85,0.00,,---,0.00,VWS V14.01,2013-02-28 09:00:00,
2013-02-28 04:15:00,41.5,37.3,29.77,West,259,0.0,1.0,85,0.00,,---,0.00,VWS V14.01,2013-02-28 09:15:00,
2013-02-28 04:30:00,41.0,36.8,29.78,WSW,257,0.0,1.0,85,0.00,,---,0.00,VWS V14.01,2013-02-28 09:30:00,
2013-02-28 04:45:00,40.4,36.5,29.78,WSW,257,0.0,0.0,86,0.00,,---,0.00,VWS V14.01,2013-02-28 09:45:00,
2013-02-28 05:00:00,40.3,36.5,29.78,West,278,1.0,3.0,86,0.00,,---,0.00,VWS V14.01,2013-02-28 10:00:00,
2013-02-28 05:15:00,40.8,36.0,29.78,WSW,243,2.0,5.0,83,0.00,,---,0.00,VWS V14.01,2013-02-28 10:15:00,
2013-02-28 05:30:00,40.8,35.7,29.79,WNW,284,1.0,4.0,82,0.00,,---,0.00,VWS V14.01,2013-02-28 10:30:00,
2013-02-28 05:45:00,41.3,35.0,29.80,WNW,283,1.0,4.0,78,0.00,,---,0.00,VWS V14.01,2013-02-28 10:45:00,
2013-02-28 06:00:00,41.5,34.5,29.80,West,281,0.0,7.0,76,0.00,,---,0.00,VWS V14.01,2013-02-28 11:00:00,
2013-02-28 06:15:00,41.3,34.3,29.80,NW,304,1.0,5.0,76,0.00,,---,0.00,VWS V14.01,2013-02-28 11:15:00,
2013-02-28 06:30:00,40.9,34.3,29.81,West,273,1.0,4.0,77,0.00,,---,0.00,VWS V14.01,2013-02-28 11:30:00,
2013-02-28 06:45:00,40.9,33.9,29.81,SW,233,1.0,5.0,76,0.00,,---,0.00,VWS V14.01,2013-02-28 11:45:00,
2013-02-28 07:00:00,40.5,33.5,29.81,SW,215,0.0,5.0,76,0.00,,---,0.00,VWS V14.01,2013-02-28 12:00:00,
2013-02-28 07:15:00,40.6,33.3,29.82,SW,226,2.0,7.0,75,0.00,,---,0.00,VWS V14.01,2013-02-28 12:15:00,
2013-02-28 07:30:00,40.7,33.1,29.82,West,271,7.0,7.0,74,0.00,,---,0.00,VWS V14.01,2013-02-28 12:30:00,
2013-02-28 07:45:00,41.2,33.2,29.83,NW,311,1.0,8.0,73,0.00,,---,0.00,VWS V14.01,2013-02-28 12:45:00,
2013-02-28 08:00:00,41.8,33.1,29.83,NW,316,4.0,9.0,71,0.00,,---,0.00,VWS V14.01,2013-02-28 13:00:00,
2013-02-28 08:15:00,42.3,33.6,29.84,WNW,287,0.0,9.0,71,0.00,,---,0.00,VWS V14.01,2013-02-28 13:15:00,
2013-02-28 08:30:00,43.1,33.3,29.84,NW,316,5.0,8.0,68,0.00,,---,0.00,VWS V14.01,2013-02-28 13:30:00,
2013-02-28 08:45:00,43.6,32.6,29.85,WNW,297,4.0,11.0,65,0.00,,---,0.00,VWS V14.01,2013-02-28 13:45:00,
2013-02-28 09:00:00,44.1,32.3,29.85,West,278,5.0,11.0,63,0.00,,---,0.00,VWS V14.01,2013-02-28 14:00:00,
2013-02-28 09:15:00,44.7,31.7,29.85,WNW,297,7.0,14.0,60,0.00,,---,0.00,VWS V14.01,2013-02-28 14:15:00,
2013-02-28 09:30:00,45.0,31.5,29.85,WNW,297,4.0,11.0,59,0.00,,---,0.00,VWS V14.01,2013-02-28 14:30:00,
2013-02-28 09:45:00,45.6,31.7,29.84,WSW,249,6.0,12.0,58,0.00,,---,0.00,VWS V14.01,2013-02-28 14:45:00,
2013-02-28 10:00:00,46.4,31.6,29.84,NW,316,4.0,11.0,56,0.00,,---,0.00,VWS V14.01,2013-02-28 15:00:00,
2013-02-28 10:15:00,47.3,32.0,29.84,South,191,4.0,15.0,55,0.00,,---,0.00,VWS V14.01,2013-02-28 15:15:00,
2013-02-28 10:30:00,46.8,32.0,29.84,NW,322,5.0,13.0,56,0.00,,---,0.00,VWS V14.01,2013-02-28 15:30:00,
2013-02-28 10:45:00,47.8,32.4,29.84,WNW,297,8.0,14.0,55,0.00,,---,0.00,VWS V14.01,2013-02-28 15:45:00,
2013-02-28 11:00:00,48.1,32.7,29.84,NW,315,2.0,13.0,55,0.00,,---,0.00,VWS V14.01,2013-02-28 16:00:00,
2013-02-28 11:15:00,48.7,33.3,29.84,West,270,5.0,15.0,55,0.00,,---,0.00,VWS V14.01,2013-02-28 16:15:00,
2013-02-28 11:30:00,48.5,32.2,29.85,WSW,255,6.0,13.0,53,0.00,,---,0.00,VWS V14.01,2013-02-28 16:30:00,
2013-02-28 11:45:00,48.5,33.1,29.84,SSW,209,1.0,15.0,55,0.00,,---,0.00,VWS V14.01,2013-02-28 16:45:00,
2013-02-28 12:00:00,48.9,33.0,29.84,NNW,328,3.0,12.0,54,0.00,,---,0.00,VWS V14.01,2013-02-28 17:00:00,
2013-02-28 12:15:00,49.4,33.0,29.85,SSW,207,4.0,16.0,53,0.00,,---,0.00,VWS V14.01,2013-02-28 17:15:00,
2013-02-28 12:30:00,48.9,32.5,29.84,West,276,1.0,14.0,53,0.00,,---,0.00,VWS V14.01,2013-02-28 17:30:00,
2013-02-28 12:45:00,49.3,33.4,29.83,NW,314,3.0,14.0,54,0.00,,---,0.00,VWS V14.01,2013-02-28 17:45:00,
2013-02-28 13:01:00,49.6,33.2,29.83,NW,309,8.0,13.0,53,0.00,,---,0.00,VWS V14.01,2013-02-28 18:01:00,
2013-02-28 13:15:00,50.6,33.6,29.82,NW,305,10.0,13.0,52,0.00,,---,0.00,VWS V14.01,2013-02-28 18:15:00,
2013-02-28 13:30:00,51.0,34.5,29.82,NW,308,4.0,14.0,53,0.00,,---,0.00,VWS V14.01,2013-02-28 18:30:00,
2013-02-28 13:45:00,51.2,33.7,29.82,NE,46,3.0,17.0,51,0.00,,---,0.00,VWS V14.01,2013-02-28 18:45:00,
2013-02-28 14:00:00,51.5,34.0,29.81,NW,322,3.0,15.0,51,0.00,,---,0.00,VWS V14.01,2013-02-28 19:00:00,
2013-02-28 14:15:00,51.6,34.1,29.81,NW,322,3.0,17.0,51,0.00,,---,0.00,VWS V14.01,2013-02-28 19:15:00,
2013-02-28 14:30:00,51.2,33.2,29.81,WSW,249,4.0,13.0,50,0.00,,---,0.00,VWS V14.01,2013-02-28 19:30:00,
2013-02-28 14:45:00,50.6,33.2,29.82,NW,322,7.0,11.0,51,0.00,,---,0.00,VWS V14.01,2013-02-28 19:45:00,
2013-02-28 15:00:00,50.8,34.3,29.81,West,277,3.0,16.0,53,0.00,,---,0.00,VWS V14.01,2013-02-28 20:00:00,
2013-02-28 15:15:00,51.2,33.7,29.81,NW,304,9.0,11.0,51,0.00,,---,0.00,VWS V14.01,2013-02-28 20:15:00,
2013-02-28 15:30:00,51.0,33.0,29.81,NW,316,4.0,14.0,50,0.00,,---,0.00,VWS V14.01,2013-02-28 20:30:00,
2013-02-28 15:45:00,50.8,33.3,29.82,WSW,240,3.0,16.0,51,0.00,,---,0.00,VWS V14.01,2013-02-28 20:45:00,
2013-02-28 16:00:00,52.5,33.9,29.81,West,268,13.0,17.0,49,0.00,,---,0.00,VWS V14.01,2013-02-28 21:00:00,
2013-02-28 16:15:00,51.4,32.4,29.82,NW,322,5.0,13.0,48,0.00,,---,0.00,VWS V14.01,2013-02-28 21:15:00,
2013-02-28 16:30:00,52.0,32.4,29.82,NW,315,6.0,14.0,47,0.00,,---,0.00,VWS V14.01,2013-02-28 21:30:00,
2013-02-28 16:45:00,51.6,32.6,29.82,WNW,299,4.0,16.0,48,0.00,,---,0.00,VWS V14.01,2013-02-28 21:45:00,
2013-02-28 17:00:00,50.4,31.5,29.82,WNW,283,4.0,15.0,48,0.00,,---,0.00,VWS V14.01,2013-02-28 22:00:00,
2013-02-28 17:15:00,50.0,32.6,29.83,West,259,7.0,11.0,51,0.00,,---,0.00,VWS V14.01,2013-02-28 22:15:00,
2013-02-28 17:30:00,49.1,32.2,29.84,West,277,6.0,11.0,52,0.00,,---,0.00,VWS V14.01,2013-02-28 22:30:00,
2013-02-28 17:45:00,48.4,31.6,29.84,WNW,297,3.0,15.0,52,0.00,,---,0.00,VWS V14.01,2013-02-28 22:45:00,
2013-02-28 18:00:00,47.8,32.0,29.85,NW,321,1.0,8.0,54,0.00,,---,0.00,VWS V14.01,2013-02-28 23:00:00,
2013-02-28 18:15:00,47.3,31.5,29.86,NNW,332,4.0,8.0,54,0.00,,---,0.00,VWS V14.01,2013-02-28 23:15:00,
2013-02-28 18:30:00,46.6,31.8,29.86,NW,304,1.0,7.0,56,0.00,,---,0.00,VWS V14.01,2013-02-28 23:30:00,
2013-02-28 18:45:00,45.9,31.5,29.87,NNW,340,2.0,10.0,57,0.00,,---,0.00,VWS V14.01,2013-02-28 23:45:00,
2013-02-28 19:00:00,45.1,31.2,29.87,WNW,299,1.0,5.0,58,0.00,,---,0.00,VWS V14.01,2013-03-01 00:00:00,
2013-02-28 19:15:00,44.3,31.3,29.87,WNW,286,1.0,4.0,60,0.00,,---,0.00,VWS V14.01,2013-03-01 00:15:00,
2013-02-28 19:30:00,43.4,30.9,29.88,NW,308,3.0,5.0,61,0.00,,---,0.00,VWS V14.01,2013-03-01 00:30:00,
2013-02-28 19:45:00,43.0,30.5,29.88,WNW,291,3.0,6.0,61,0.00,,---,0.00,VWS V14.01,2013-03-01 00:45:00,
2013-02-28 20:00:00,42.5,30.4,29.89,NW,316,4.0,11.0,62,0.00,,---,0.00,VWS V14.01,2013-03-01 01:00:00,
2013-02-28 20:15:00,42.1,30.4,29.89,NW,304,3.0,9.0,63,0.00,,---,0.00,VWS V14.01,2013-03-01 01:15:00,
2013-02-28 20:30:00,41.3,30.4,29.89,WNW,287,1.0,6.0,65,0.00,,---,0.00,VWS V14.01,2013-03-01 01:30:00,
2013-02-28 20:45:00,40.7,30.2,29.89,NW,308,2.0,6.0,66,0.00,,---,0.00,VWS V14.01,2013-03-01 01:45:00,
2013-02-28 21:00:00,40.1,30.0,29.90,WNW,290,1.0,5.0,67,0.00,,---,0.00,VWS V14.01,2013-03-01 02:00:00,
2013-02-28 21:15:00,39.5,29.8,29.90,NW,309,3.0,5.0,68,0.00,,---,0.00,VWS V14.01,2013-03-01 02:15:00,
2013-02-28 21:30:00,39.1,29.8,29.91,NW,324,3.0,7.0,69,0.00,,---,0.00,VWS V14.01,2013-03-01 02:30:00,
2013-02-28 21:45:00,38.9,29.2,29.90,NNW,347,3.0,7.0,68,0.00,,---,0.00,VWS V14.01,2013-03-01 02:45:00,
2013-02-28 22:00:00,38.6,29.0,29.90,WNW,302,3.0,6.0,68,0.00,,---,0.00,VWS V14.01,2013-03-01 03:00:00,
2013-02-28 22:15:00,38.5,28.5,29.91,WNW,287,1.0,7.0,67,0.00,,---,0.00,VWS V14.01,2013-03-01 03:15:00,
2013-02-28 22:30:00,38.0,28.8,29.91,West,276,1.0,4.0,69,0.00,,---,0.00,VWS V14.01,2013-03-01 03:30:00,
2013-02-28 22:45:00,37.7,28.8,29.90,NW,320,1.0,5.0,70,0.00,,---,0.00,VWS V14.01,2013-03-01 03:45:00,
2013-02-28 23:00:00,37.2,28.3,29.90,WNW,302,1.0,4.0,70,0.00,,---,0.00,VWS V14.01,2013-03-01 04:00:00,
2013-02-28 23:15:00,36.8,28.3,29.91,NW,322,2.0,3.0,71,0.00,,---,0.00,VWS V14.01,2013-03-01 04:15:00,
2013-02-28 23:30:00,36.5,28.4,29.90,West,274,3.0,3.0,72,0.00,,---,0.00,VWS V14.01,2013-03-01 04:30:00,
2013-02-28 23:45:00,36.3,28.1,29.91,WNW,283,0.0,3.0,72,0.00,,---,0.00,VWS V14.01,2013-03-01 04:45:00,